createdAt,value
2022-11-19T00:00:10.661Z,31.70
2022-11-19T00:02:38.897Z,31.03
2022-11-19T00:05:07.725Z,30.90
2022-11-19T00:07:36.200Z,30.33
2022-11-19T00:10:07.289Z,38.40
2022-11-19T00:12:53.002Z,32.20
2022-11-19T00:15:21.616Z,29.20
2022-11-19T00:17:50.416Z,34.23
2022-11-19T00:20:18.984Z,28.40
2022-11-19T00:22:51.830Z,32.73
2022-11-19T00:25:22.406Z,25.97
2022-11-19T00:27:51.036Z,34.67
2022-11-19T00:30:46.203Z,27.80
2022-11-19T00:33:08.758Z,33.87
2022-11-19T00:35:37.055Z,30.70
2022-11-19T00:38:05.359Z,31.10
2022-11-19T00:40:35.021Z,36.23
2022-11-19T00:43:20.703Z,30.67
2022-11-19T00:45:50.308Z,33.47
2022-11-19T00:48:21.657Z,28.87
2022-11-19T00:50:49.985Z,34.30
2022-11-19T00:53:18.514Z,29.70
2022-11-19T00:55:48.238Z,27.80
2022-11-19T00:58:16.531Z,27.87
2022-11-19T01:00:45.030Z,29.47
2022-11-19T01:03:13.619Z,31.63
2022-11-19T01:05:42.011Z,31.00
2022-11-19T01:08:10.802Z,37.60
2022-11-19T01:10:39.244Z,32.50
2022-11-19T01:13:26.260Z,30.80
2022-11-19T01:15:54.933Z,34.00
2022-11-19T01:18:23.531Z,29.30
2022-11-19T01:20:51.810Z,31.07
2022-11-19T01:23:20.542Z,29.77
2022-11-19T01:25:48.896Z,29.13
2022-11-19T01:28:18.799Z,32.70
2022-11-19T01:30:47.250Z,36.90
2022-11-19T01:33:16.046Z,29.67
2022-11-19T01:35:44.462Z,31.70
2022-11-19T01:38:12.907Z,40.20
2022-11-19T01:40:45.522Z,35.17
2022-11-19T01:43:14.895Z,29.93
2022-11-19T01:45:48.220Z,26.90
2022-11-19T01:48:22.387Z,29.40
2022-11-19T01:50:57.763Z,24.40
2022-11-19T01:53:31.195Z,35.53
2022-11-19T01:56:04.145Z,32.03
2022-11-19T01:58:39.288Z,34.47
2022-11-19T02:01:11.213Z,32.60
2022-11-19T02:03:40.786Z,30.70
2022-11-19T02:06:09.726Z,35.10
2022-11-19T02:08:42.922Z,35.47
2022-11-19T02:11:58.434Z,31.30
2022-11-19T02:15:09.152Z,30.70
2022-11-19T02:17:58.816Z,31.83
2022-11-19T02:20:53.200Z,32.73
2022-11-19T02:24:33.182Z,30.70
2022-11-19T02:27:49.374Z,31.63
2022-11-19T02:30:20.136Z,28.60
2022-11-19T02:33:00.696Z,34.57
2022-11-19T02:35:46.127Z,29.67
2022-11-19T02:38:25.074Z,33.70
2022-11-19T02:41:00.342Z,36.50
2022-11-19T02:43:37.699Z,33.03
2022-11-19T02:46:13.103Z,36.50
2022-11-19T02:48:47.551Z,35.40
2022-11-19T02:51:17.527Z,38.90
2022-11-19T02:53:48.622Z,37.70
2022-11-19T02:56:49.792Z,32.90
2022-11-19T02:59:39.422Z,31.57
2022-11-19T03:02:29.239Z,28.43
2022-11-19T03:04:58.059Z,34.00
2022-11-19T03:07:26.589Z,34.90
2022-11-19T03:10:00.651Z,29.37
2022-11-19T03:12:40.582Z,32.30
2022-11-19T03:15:43.855Z,32.13
2022-11-19T03:18:19.436Z,35.93
2022-11-19T03:20:54.303Z,28.23
2022-11-19T03:23:28.147Z,30.97
2022-11-19T03:26:02.072Z,30.20
2022-11-19T03:28:37.100Z,32.30
2022-11-19T03:31:07.707Z,40.47
2022-11-19T03:33:42.711Z,35.20
2022-11-19T03:36:15.630Z,36.37
2022-11-19T03:38:48.032Z,37.53
2022-11-19T03:41:20.971Z,30.27
2022-11-19T03:43:56.478Z,33.27
2022-11-19T03:46:26.743Z,33.30
2022-11-19T03:49:00.484Z,32.57
2022-11-19T03:51:38.058Z,44.47
2022-11-19T03:54:07.569Z,37.97
2022-11-19T03:56:40.367Z,37.07
2022-11-19T03:59:12.828Z,38.20
2022-11-19T04:01:42.061Z,48.10
2022-11-19T04:04:28.980Z,39.60
2022-11-19T04:06:57.376Z,46.83
2022-11-19T04:09:25.674Z,36.30
2022-11-19T04:14:21.443Z,39.47
2022-11-19T04:16:50.168Z,37.03
2022-11-19T04:19:20.106Z,41.50
2022-11-19T04:21:48.940Z,34.30
2022-11-19T04:24:17.840Z,35.77
2022-11-19T04:26:46.085Z,30.13
2022-11-19T04:29:14.594Z,42.00
2022-11-19T04:31:43.206Z,36.97
2022-11-19T04:34:11.458Z,48.20
2022-11-19T04:36:42.288Z,40.67
2022-11-19T04:39:12.672Z,41.10
2022-11-19T04:41:41.714Z,39.97
2022-11-19T04:44:10.052Z,36.30
2022-11-19T04:46:38.420Z,39.00
2022-11-19T04:49:06.964Z,38.60
2022-11-19T04:51:35.242Z,46.43
2022-11-19T04:54:05.315Z,46.03
2022-11-19T04:56:33.603Z,43.63
2022-11-19T04:59:02.175Z,39.10
2022-11-19T05:01:30.674Z,43.80
2022-11-19T05:03:58.996Z,41.67
2022-11-19T05:06:27.349Z,53.40
2022-11-19T05:08:55.629Z,59.93
2022-11-19T05:11:25.338Z,47.20
2022-11-19T05:13:53.618Z,41.80
2022-11-19T05:16:21.885Z,50.30
2022-11-19T05:18:50.139Z,49.87
2022-11-19T05:21:18.444Z,50.03
2022-11-19T05:23:46.648Z,50.73
2022-11-19T05:26:14.915Z,45.77
2022-11-19T05:28:44.580Z,53.03
2022-11-19T05:31:12.970Z,33.20
2022-11-19T05:33:41.620Z,48.23
2022-11-19T05:36:10.564Z,50.73
2022-11-19T05:38:39.072Z,46.30
2022-11-19T05:41:07.787Z,53.80
2022-11-19T05:43:36.150Z,48.83
2022-11-19T05:46:06.006Z,43.07
2022-11-19T05:48:34.598Z,49.10
2022-11-19T05:51:03.110Z,46.60
2022-11-19T05:53:31.413Z,52.03
2022-11-19T05:55:59.628Z,43.93
2022-11-19T05:58:27.874Z,52.43
2022-11-19T06:00:56.644Z,49.00
2022-11-19T06:03:26.326Z,62.60
2022-11-19T06:05:54.660Z,52.13
2022-11-19T06:08:22.898Z,51.10
2022-11-19T06:10:51.373Z,51.20
2022-11-19T06:13:20.168Z,49.87
2022-11-19T06:15:48.722Z,49.77
2022-11-19T06:18:17.006Z,53.80
2022-11-19T06:20:46.807Z,48.93
2022-11-19T06:23:15.043Z,56.23
2022-11-19T06:25:43.301Z,47.93
2022-11-19T06:28:11.623Z,57.07
2022-11-19T06:30:40.125Z,64.47
2022-11-19T06:33:08.832Z,56.67
2022-11-19T06:35:37.102Z,50.13
2022-11-19T06:38:06.814Z,51.70
2022-11-19T06:40:35.096Z,56.43
2022-11-19T06:43:03.387Z,55.27
2022-11-19T06:45:31.812Z,54.03
2022-11-19T06:48:00.043Z,48.97
2022-11-19T06:50:28.317Z,46.10
2022-11-19T06:52:56.599Z,53.43
2022-11-19T06:55:27.499Z,49.40
2022-11-19T06:57:56.227Z,46.70
2022-11-19T07:00:24.924Z,47.30
2022-11-19T07:02:53.172Z,53.47
2022-11-19T07:05:21.591Z,55.37
2022-11-19T07:07:49.784Z,58.03
2022-11-19T07:10:18.431Z,55.33
2022-11-19T07:12:48.062Z,50.43
2022-11-19T07:15:17.034Z,49.87
2022-11-19T07:17:45.314Z,55.63
2022-11-19T07:20:14.525Z,51.33
2022-11-19T07:22:43.405Z,57.00
2022-11-19T07:25:13.488Z,66.50
2022-11-19T07:27:42.641Z,52.47
2022-11-19T07:30:13.788Z,48.47
2022-11-19T07:32:42.191Z,44.40
2022-11-19T07:35:11.920Z,56.47
2022-11-19T07:37:40.913Z,55.20
2022-11-19T07:40:11.517Z,53.50
2022-11-19T07:42:50.936Z,49.17
2022-11-19T07:45:23.342Z,62.10
2022-11-19T07:47:51.589Z,62.80
2022-11-19T07:50:20.683Z,64.13
2022-11-19T07:52:49.022Z,49.77
2022-11-19T07:55:17.612Z,54.37
2022-11-19T07:57:46.055Z,55.10
2022-11-19T08:00:16.155Z,62.43
2022-11-19T08:02:46.008Z,48.33
2022-11-19T08:05:14.666Z,62.93
2022-11-19T08:07:43.034Z,56.70
2022-11-19T08:10:12.722Z,61.80
2022-11-19T08:12:41.045Z,58.07
2022-11-19T08:15:11.067Z,59.57
2022-11-19T08:17:56.637Z,61.13
2022-11-19T08:20:26.381Z,63.53
2022-11-19T08:22:54.803Z,61.90
2022-11-19T08:25:23.056Z,51.97
2022-11-19T08:27:51.259Z,58.57
2022-11-19T08:30:19.836Z,72.83
2022-11-19T08:32:48.233Z,54.03
2022-11-19T08:35:16.664Z,55.60
2022-11-19T08:37:47.947Z,59.97
2022-11-19T08:40:17.139Z,60.20
2022-11-19T08:42:59.917Z,56.57
2022-11-19T08:45:31.336Z,53.20
2022-11-19T08:48:01.793Z,55.00
2022-11-19T08:50:31.820Z,52.40
2022-11-19T08:53:03.566Z,52.83
2022-11-19T08:55:33.767Z,51.73
2022-11-19T08:58:04.674Z,60.83
2022-11-19T09:00:35.805Z,52.03
2022-11-19T09:03:04.296Z,63.00
2022-11-19T09:05:35.419Z,58.30
2022-11-19T09:08:05.126Z,50.60
2022-11-19T09:10:33.745Z,65.40
2022-11-19T09:13:03.429Z,59.97
2022-11-19T09:15:32.025Z,58.00
2022-11-19T09:18:00.436Z,55.20
2022-11-19T09:20:28.682Z,71.37
2022-11-19T09:22:57.374Z,70.43
2022-11-19T09:25:27.205Z,57.40
2022-11-19T09:27:56.079Z,52.17
2022-11-19T09:30:24.515Z,61.20
2022-11-19T09:32:52.925Z,53.90
2022-11-19T09:35:21.274Z,60.60
2022-11-19T09:37:49.613Z,53.40
2022-11-19T09:40:21.725Z,56.77
2022-11-19T09:43:08.483Z,62.77
2022-11-19T09:45:54.860Z,55.97
2022-11-19T09:48:34.926Z,58.67
2022-11-19T09:51:11.245Z,46.80
2022-11-19T09:53:46.550Z,58.43
2022-11-19T09:56:27.140Z,62.63
2022-11-19T09:58:58.617Z,54.43
2022-11-19T10:01:30.447Z,53.30
2022-11-19T10:04:00.417Z,52.60
2022-11-19T10:06:33.248Z,45.83
2022-11-19T10:09:25.259Z,60.87
2022-11-19T10:12:12.386Z,53.37
2022-11-19T10:15:08.104Z,55.30
2022-11-19T10:17:53.008Z,53.47
2022-11-19T10:20:49.059Z,44.37
2022-11-19T10:23:20.046Z,51.00
2022-11-19T10:25:50.676Z,45.40
2022-11-19T10:28:23.254Z,54.83
2022-11-19T10:30:56.439Z,54.27
2022-11-19T10:33:31.954Z,45.40
2022-11-19T10:36:05.556Z,46.17
2022-11-19T10:38:38.890Z,43.73
2022-11-19T10:41:14.984Z,45.87
2022-11-19T10:43:48.733Z,36.53
2022-11-19T10:46:23.906Z,41.20
2022-11-19T10:48:56.019Z,37.13
2022-11-19T10:51:29.726Z,37.97
2022-11-19T10:53:58.981Z,42.90
2022-11-19T10:56:39.464Z,39.73
2022-11-19T10:59:13.936Z,35.90
2022-11-19T11:01:46.885Z,41.43
2022-11-19T11:04:20.080Z,36.87
2022-11-19T11:06:55.926Z,38.90
2022-11-19T11:09:35.509Z,36.47
2022-11-19T11:12:31.501Z,36.40
2022-11-19T11:15:09.035Z,32.70
2022-11-19T11:17:39.136Z,34.70
2022-11-19T11:20:21.443Z,34.23
2022-11-19T11:23:02.896Z,32.97
2022-11-19T11:25:31.470Z,32.90
2022-11-19T11:28:08.230Z,41.17
2022-11-19T11:30:36.622Z,38.83
2022-11-19T11:36:01.690Z,33.37
2022-11-19T11:38:31.266Z,33.20
2022-11-19T11:41:43.995Z,34.27
2022-11-19T11:44:04.403Z,33.40
2022-11-19T11:46:44.301Z,34.50
2022-11-19T11:49:31.808Z,35.60
2022-11-19T11:52:20.952Z,32.30
2022-11-19T11:55:01.066Z,33.77
2022-11-19T11:57:31.699Z,35.17
2022-11-19T12:00:00.964Z,37.83
2022-11-19T12:02:33.005Z,38.27
2022-11-19T12:05:05.133Z,31.20
2022-11-19T12:08:04.793Z,35.13
2022-11-19T12:10:45.125Z,37.03
2022-11-19T12:13:57.743Z,35.23
2022-11-19T12:16:42.330Z,29.77
2022-11-19T12:19:53.053Z,30.53
2022-11-19T12:22:35.973Z,28.00
2022-11-19T12:25:31.239Z,27.33
2022-11-19T12:28:25.919Z,30.97
2022-11-19T12:31:12.161Z,26.73
2022-11-19T12:34:05.775Z,34.00
2022-11-19T12:36:48.494Z,27.80
2022-11-19T12:39:37.416Z,29.87
2022-11-19T12:42:31.301Z,30.90
2022-11-19T12:45:12.179Z,24.17
2022-11-19T12:48:04.049Z,25.17
2022-11-19T12:50:43.603Z,26.00
2022-11-19T12:53:27.594Z,30.90
2022-11-19T12:56:08.478Z,31.57
2022-11-19T12:58:47.978Z,26.00
2022-11-19T13:01:22.210Z,28.03
2022-11-19T13:04:03.852Z,23.40
2022-11-19T13:06:40.441Z,32.03
2022-11-19T13:09:17.151Z,27.70
2022-11-19T13:11:55.459Z,24.30
2022-11-19T13:14:33.379Z,23.43
2022-11-19T13:17:03.114Z,25.23
2022-11-19T13:19:35.074Z,21.90
2022-11-19T13:22:08.464Z,22.47
2022-11-19T13:24:42.606Z,26.80
2022-11-19T13:27:20.196Z,22.67
2022-11-19T13:30:00.117Z,23.10
2022-11-19T13:32:38.526Z,27.87
2022-11-19T13:35:19.674Z,19.80
2022-11-19T13:38:01.159Z,31.03
2022-11-19T13:40:36.818Z,22.83
2022-11-19T13:43:34.700Z,20.83
2022-11-19T13:46:19.404Z,25.63
2022-11-19T13:48:57.657Z,19.97
2022-11-19T13:51:33.285Z,22.80
2022-11-19T13:54:04.342Z,24.57
2022-11-19T13:56:43.892Z,21.33
2022-11-19T13:59:30.250Z,23.93
2022-11-19T14:02:43.920Z,21.20
2022-11-19T14:05:59.757Z,21.27
2022-11-19T14:08:45.241Z,22.40
2022-11-19T14:11:43.158Z,18.57
2022-11-19T14:14:49.856Z,23.80
2022-11-19T14:17:48.386Z,23.57
2022-11-19T14:23:30.372Z,20.43
2022-11-19T14:26:16.528Z,22.37
2022-11-19T14:28:48.427Z,24.27
2022-11-19T14:31:17.634Z,21.00
2022-11-19T14:34:01.677Z,21.50
2022-11-19T14:36:48.854Z,17.53
2022-11-19T14:39:25.318Z,20.73
2022-11-19T14:42:15.842Z,22.50
2022-11-19T14:44:44.594Z,18.83
2022-11-19T14:47:38.436Z,17.03
2022-11-19T14:50:23.455Z,20.77
2022-11-19T14:52:55.128Z,22.03
2022-11-19T14:55:27.999Z,20.90
2022-11-19T14:58:02.444Z,19.70
2022-11-19T15:00:36.418Z,19.30
2022-11-19T15:03:08.590Z,18.20
2022-11-19T15:05:42.073Z,19.53
2022-11-19T15:08:47.004Z,25.13
2022-11-19T15:11:17.727Z,20.87
2022-11-19T15:13:47.480Z,23.63
2022-11-19T15:16:20.161Z,20.90
2022-11-19T15:19:24.281Z,19.87
2022-11-19T15:22:44.303Z,23.77
2022-11-19T15:25:30.635Z,18.70
2022-11-19T15:28:29.029Z,17.70
2022-11-19T15:31:23.826Z,17.23
2022-11-19T15:35:03.819Z,18.07
2022-11-19T15:37:47.035Z,18.87
2022-11-19T15:40:20.782Z,17.20
2022-11-19T15:42:58.123Z,19.47
2022-11-19T15:45:32.533Z,20.43
2022-11-19T15:48:13.869Z,17.37
2022-11-19T15:50:44.979Z,16.67
2022-11-19T15:53:20.443Z,16.20
2022-11-19T15:55:54.131Z,17.83
2022-11-19T15:58:28.507Z,16.87
2022-11-19T16:00:58.320Z,21.23
2022-11-19T16:03:26.702Z,16.97
2022-11-19T16:06:05.654Z,19.87
2022-11-19T16:08:34.668Z,19.50
2022-11-19T16:11:21.222Z,18.50
2022-11-19T16:14:12.198Z,20.33
2022-11-19T16:16:59.403Z,19.10
2022-11-19T16:19:27.667Z,17.90
2022-11-19T16:22:00.854Z,23.73
2022-11-19T16:24:48.437Z,20.53
2022-11-19T16:27:23.110Z,26.13
2022-11-19T16:29:52.708Z,19.73
2022-11-19T16:32:25.645Z,18.80
2022-11-19T16:34:53.985Z,18.80
2022-11-19T16:37:23.489Z,18.93
2022-11-19T16:39:54.148Z,19.07
2022-11-19T16:42:28.348Z,17.10
2022-11-19T16:45:06.197Z,21.90
2022-11-19T16:47:39.863Z,18.80
2022-11-19T16:50:26.964Z,23.70
2022-11-19T16:52:56.381Z,17.77
2022-11-19T16:55:52.569Z,22.30
2022-11-19T16:58:26.285Z,19.10
2022-11-19T17:00:59.565Z,23.40
2022-11-19T17:03:37.019Z,18.70
2022-11-19T17:06:09.036Z,19.00
2022-11-19T17:08:39.456Z,26.13
2022-11-19T17:11:41.001Z,23.67
2022-11-19T17:14:21.501Z,19.40
2022-11-19T17:16:52.445Z,20.90
2022-11-19T17:19:34.388Z,24.77
2022-11-19T17:22:05.984Z,20.30
2022-11-19T17:24:41.882Z,18.90
2022-11-19T17:27:23.903Z,19.90
2022-11-19T17:30:02.883Z,19.83
2022-11-19T17:32:40.067Z,18.20
2022-11-19T17:35:35.167Z,23.07
2022-11-19T17:38:11.460Z,22.00
2022-11-19T17:40:42.092Z,19.40
2022-11-19T17:43:29.531Z,18.30
2022-11-19T17:45:57.903Z,13.73
2022-11-19T17:48:28.288Z,18.27
2022-11-19T17:50:58.585Z,19.77
2022-11-19T17:53:26.894Z,13.73
2022-11-19T17:55:58.116Z,15.97
2022-11-19T17:58:26.353Z,17.97
2022-11-19T18:00:54.760Z,19.17
2022-11-19T18:03:23.203Z,15.90
2022-11-19T18:05:51.826Z,14.33
2022-11-19T18:08:21.508Z,18.20
2022-11-19T18:10:50.615Z,14.93
2022-11-19T18:13:25.267Z,13.03
2022-11-19T18:15:53.717Z,16.67
2022-11-19T18:18:21.905Z,13.00
2022-11-19T18:20:51.216Z,11.93
2022-11-19T18:23:20.925Z,15.23
2022-11-19T18:25:49.235Z,15.33
2022-11-19T18:28:17.622Z,12.33
2022-11-19T18:30:45.866Z,14.10
2022-11-19T18:33:14.352Z,16.63
2022-11-19T18:35:42.670Z,11.30
2022-11-19T18:38:10.935Z,15.27
2022-11-19T18:40:42.222Z,18.57
2022-11-19T18:43:28.176Z,18.97
2022-11-19T18:45:56.460Z,16.50
2022-11-19T18:48:24.838Z,20.47
2022-11-19T18:50:53.766Z,15.93
2022-11-19T18:53:22.064Z,16.53
2022-11-19T18:55:51.923Z,23.80
2022-11-19T18:58:20.516Z,13.77
2022-11-19T19:00:49.074Z,14.87
2022-11-19T19:03:17.467Z,15.40
2022-11-19T19:05:45.694Z,14.57
2022-11-19T19:08:14.136Z,15.27
2022-11-19T19:10:43.040Z,13.83
2022-11-19T19:13:11.698Z,13.97
2022-11-19T19:15:40.010Z,16.20
2022-11-19T19:18:11.897Z,17.27
2022-11-19T19:20:40.223Z,19.40
2022-11-19T19:23:08.897Z,18.07
2022-11-19T19:25:37.399Z,15.40
2022-11-19T19:28:06.118Z,15.00
2022-11-19T19:30:36.247Z,15.70
2022-11-19T19:33:05.165Z,11.50
2022-11-19T19:35:33.452Z,16.53
2022-11-19T19:38:01.701Z,15.20
2022-11-19T19:40:30.091Z,13.67
2022-11-19T19:43:03.174Z,14.23
2022-11-19T19:45:31.547Z,13.90
2022-11-19T19:48:01.166Z,13.77
2022-11-19T19:50:29.642Z,15.50
2022-11-19T19:52:59.106Z,14.47
2022-11-19T19:55:27.770Z,13.73
2022-11-19T19:57:56.510Z,12.57
2022-11-19T20:00:24.872Z,12.50
2022-11-19T20:02:53.605Z,13.43
2022-11-19T20:05:23.192Z,12.70
2022-11-19T20:07:51.418Z,18.70
2022-11-19T20:10:19.880Z,11.00
2022-11-19T20:13:05.651Z,10.57
2022-11-19T20:15:35.192Z,12.73
2022-11-19T20:18:03.526Z,13.37
2022-11-19T20:20:34.116Z,13.37
2022-11-19T20:23:02.557Z,12.83
2022-11-19T20:25:30.870Z,14.67
2022-11-19T20:27:59.275Z,14.50
2022-11-19T20:30:27.584Z,15.27
2022-11-19T20:32:55.898Z,16.13
2022-11-19T20:35:24.685Z,14.73
2022-11-19T20:38:00.771Z,15.80
2022-11-19T20:40:31.832Z,16.50
2022-11-19T20:43:17.831Z,13.30
2022-11-19T20:45:46.179Z,14.87
2022-11-19T20:48:14.430Z,13.40
2022-11-19T20:50:42.960Z,19.67
2022-11-19T20:53:12.753Z,16.13
2022-11-19T20:56:03.870Z,13.20
2022-11-19T20:58:29.672Z,16.73
2022-11-19T21:01:03.667Z,13.43
2022-11-19T21:03:33.862Z,17.27
2022-11-19T21:06:06.573Z,15.47
2022-11-19T21:08:37.553Z,15.10
2022-11-19T21:11:12.561Z,12.13
2022-11-19T21:13:41.251Z,14.27
2022-11-19T21:16:13.797Z,20.53
2022-11-19T21:18:42.867Z,15.70
2022-11-19T21:21:12.884Z,14.00
2022-11-19T21:23:43.315Z,15.03
2022-11-19T21:26:16.355Z,19.93
2022-11-19T21:28:46.237Z,16.70
2022-11-19T21:31:15.477Z,16.23
2022-11-19T21:33:43.997Z,13.00
2022-11-19T21:36:12.502Z,16.50
2022-11-19T21:38:42.304Z,14.63
2022-11-19T21:41:10.609Z,19.60
2022-11-19T21:43:38.873Z,16.70
2022-11-19T21:46:08.924Z,14.73
2022-11-19T21:48:39.391Z,19.40
2022-11-19T21:51:09.263Z,23.90
2022-11-19T21:53:37.747Z,20.83
2022-11-19T21:56:08.718Z,15.17
2022-11-19T21:58:37.017Z,16.85
2022-11-19T22:01:06.951Z,16.90
2022-11-19T22:03:36.829Z,18.27
2022-11-19T22:06:08.693Z,18.27
2022-11-19T22:08:39.595Z,18.67
2022-11-19T22:11:25.216Z,20.00
2022-11-19T22:13:54.627Z,19.95
2022-11-19T22:16:23.292Z,13.00
2022-11-19T22:18:51.900Z,17.77
2022-11-19T22:21:20.320Z,19.65
2022-11-19T22:23:48.615Z,17.83
2022-11-19T22:26:18.374Z,22.50
2022-11-19T22:28:46.670Z,21.10
2022-11-19T22:31:15.761Z,20.03
2022-11-19T22:33:44.180Z,16.67
2022-11-19T22:36:13.073Z,17.83
2022-11-19T22:38:41.343Z,20.87
2022-11-19T22:41:12.220Z,18.00
2022-11-19T22:43:44.190Z,16.10
2022-11-19T22:46:14.237Z,19.90
2022-11-19T22:48:42.928Z,16.87
2022-11-19T22:51:14.838Z,22.80
2022-11-19T22:53:44.232Z,21.33
2022-11-19T22:56:15.140Z,15.80
2022-11-19T22:58:45.541Z,20.83
2022-11-19T23:01:18.635Z,19.45
2022-11-19T23:03:47.436Z,17.80
2022-11-19T23:06:16.189Z,17.33
2022-11-19T23:08:44.961Z,19.85
2022-11-19T23:11:15.389Z,20.07
2022-11-19T23:13:45.097Z,16.20
2022-11-19T23:16:16.710Z,20.35
2022-11-19T23:18:50.927Z,18.33
2022-11-19T23:21:22.196Z,23.33
2022-11-19T23:23:51.212Z,15.88
2022-11-19T23:26:21.996Z,22.50
2022-11-19T23:28:52.770Z,18.55
2022-11-19T23:31:23.851Z,21.92
2022-11-19T23:33:58.810Z,17.20
2022-11-19T23:36:30.411Z,21.73
2022-11-19T23:38:59.925Z,18.88
2022-11-19T23:41:29.361Z,14.90
2022-11-19T23:43:59.256Z,19.60
2022-11-19T23:46:30.087Z,19.17
2022-11-19T23:49:00.573Z,18.63
2022-11-19T23:51:32.498Z,18.95
2022-11-19T23:54:01.083Z,16.10
2022-11-19T23:56:32.267Z,14.85
2022-11-19T23:59:03.626Z,16.52
